Airport View

Enter AWOS ICAO identifier for current METAR.

ex. KFNL

KGFL 262253Z AUTO 21008KT 10SM FEW027 OVC040 02/M01 A2966 RMK AO2 SLP050 T00221006

26 Jan 2020 23:26

Frequency: 119.925

Phone: 518-743-1728

Other Area AWOS: KRUT - KDDH - KSCH - KALB

TAF AMD KGFL 261743Z 2618/2718 22006KT P6SM VCSH OVC050 FM262200 22006KT P6SM OVC050 FM270300 21003KT P6SM OVC025